• Join FlightAware (Why Join?)
  • Login
  • US Flag 
03:38PM EST


 

Airport Tracker/Info


-or-


 

Live Flight TrackerFlight Track Log ✈ N400PU ✈ 17-Dec-2013 ✈ KMLI - KLAF

Flight Track Log - Related Links

Times and Time Zones

All times are in EST time to prevent confusion due to time zone crossing. See the N400PU flight status page for this flight to view local times or setup timezone preferences in your user account.

Time Position Orientation Groundspeed Altitude Reporting Facility
EST Latitude Longitude Course Direction KTS MPH feet Rate Location/Type
05:29PM 41.4319 -90.5636 172° South 165 190 3,900  Level Chicago Center
05:30PM 41.3747 -90.5531 172° South 282 325 7,000 3,000 Climbing Chicago Center
05:31PM 41.3467 -90.4472 109° East 306 352 10,200 2,760 Climbing Chicago Center
05:32PM 41.3067 -90.2958 109° East 367 422 12,800 2,220 Climbing Chicago Center
05:33PM 41.2714 -90.1511 108° East 404 465 14,900 1,800 Climbing Chicago Center
05:34PM 41.2342 -89.9972 108° East 431 496 16,600 1,080 Climbing Chicago Center
05:35PM 41.1931 -89.8364 109° East 453 521 17,200 240 Climbing Chicago Center
05:36PM 41.1525 -89.6756 108° East 457 526 17,200  Level Chicago Center
05:37PM 41.1131 -89.5183 108° East 449 517 17,200  Level Chicago Center
05:38PM 41.0733 -89.3639 109° East 442 509 17,200  Level Chicago Center
05:39PM 41.0292 -89.1953 109° East 442 509 17,200  Level Chicago Center
05:40PM 40.9833 -89.0239 109° East 443 510 17,200  Level Chicago Center
05:41PM 40.9433 -88.8689 109° East 443 510 17,200 -60 Level Chicago Center
05:43PM 40.9000 -88.7078 110° East 442 509 17,100 -60 Descending Chicago Center
05:44PM 40.8592 -88.5544 109° East 444 511 17,100  Level Chicago Center
05:45PM 40.8192 -88.4008 109° East 446 513 17,100 -240 Level Chicago Center
05:46PM 40.7775 -88.2494 110° East 445 512 16,700 -1,080 Descending Chicago Center
05:47PM 40.7292 -88.0697 109° East 439 505 14,900 -1,620 Descending Chicago Center
05:48PM 40.6886 -87.9219 110° East 435 501 13,400 -1,260 Descending Chicago Center
05:49PM 40.6503 -87.7769 109° East 426 490 12,400 -1,020 Descending Chicago Center
05:50PM 40.6106 -87.6364 110° East 417 480 11,300 -1,260 Descending Chicago Center
05:51PM 40.5786 -87.5250 111° Southeast 358 412 10,200 -1,320 Descending Chicago Center
05:51PM 40.5703 -87.4867 106° East 359 413 10,000 -1,620 Descending Chicago Center
05:51PM 40.5533 -87.4356 114° Southeast 319 367 8,900 -2,040 Descending Chicago Center
05:52PM 40.5417 -87.3825 106° East 313 360 7,900 -1,740 Descending Chicago Center
05:52PM 40.5367 -87.3331 98° East 286 329 7,200 -1,500 Descending Chicago Center
05:53PM 40.5325 -87.2767 96° East 294 338 6,400 -1,620 Descending Chicago Center
05:53PM 40.5244 -87.2256 102° East 285 328 5,600 -1,440 Descending Chicago Center
05:54PM 40.5203 -87.1719 96° East 294 338 4,900 -1,560 Descending Chicago Center
05:54PM 40.5136 -87.1317 102° East 296 341 4,200 -1,260 Descending Chicago Center
05:55PM 40.5086 -87.0664 96° East 294 338 3,600 -1,140 Descending Chicago Center
05:55PM 40.5017 -87.0186 101° East 295 339 3,100 -600 Descending Chicago Center
05:56PM 40.4953 -86.9456 97° East 293 337 3,000 -120 Descending Chicago Center
05:56PM 40.4908 -86.9167 101° East 294 338 3,000 -120 Level Chicago Center
05:57PM 40.4844 -86.8478 97° East 287 330 2,900 -300 Descending Chicago Center
05:57PM 40.4753 -86.8339 131° Southeast 207 238 2,700  Descending Chicago Center
05:58PM 40.4711 -86.7653 95° East 278 320 2,900 -540 Climbing Chicago Center
05:58PM 40.4336 -86.8311 233° Southwest 126 145 2,200 -900 Descending Chicago Center
05:59PM 40.4117 -86.8597 225° Southwest 105 121 1,800 -480 Descending Chicago Center
06:00PM 40.4042 -86.8947 254° West 109 125 1,300 -540 Descending Chicago Center